Time;durP1;ratioP1;P1;durP2;ratioP2;P2;SDS_P1;SDS_P2;PMS_P1;PMS_P2;Temp;Humidity;BMP_temperature;BMP_pressure;BME280_temperature;BME280_humidity;BME280_pressure;Samples;Min_cycle;Max_cycle;Signal;HPM_P1;HPM_P2
2022/05/16 00:01:51;;;;;;;9.00;8.20;;;17.90;95.60;;;;;;5052465;28;20432;-67
2022/05/16 00:04:17;;;;;;;10.70;8.43;;;17.90;95.50;;;;;;5053343;28;20448;-66
2022/05/16 00:06:43;;;;;;;9.53;8.73;;;17.80;95.20;;;;;;5050888;28;20514;-67
2022/05/16 00:09:09;;;;;;;10.23;9.23;;;17.80;95.00;;;;;;5050830;28;20514;-66
2022/05/16 00:11:35;;;;;;;9.20;8.50;;;17.80;95.00;;;;;;5051370;28;20177;-66
2022/05/16 00:14:01;;;;;;;13.07;11.77;;;17.80;94.90;;;;;;5051128;28;20439;-67
2022/05/16 00:16:27;;;;;;;8.77;8.07;;;17.80;94.80;;;;;;5050581;28;20497;-73
2022/05/16 00:18:53;;;;;;;8.70;8.00;;;17.80;95.00;;;;;;5051602;28;20170;-67
2022/05/16 00:21:19;;;;;;;11.77;10.63;;;17.80;95.20;;;;;;5052835;28;20451;-66
2022/05/16 00:23:45;;;;;;;8.73;8.03;;;17.90;95.30;;;;;;5052280;28;20483;-67
2022/05/16 00:26:11;;;;;;;8.60;7.90;;;17.90;95.70;;;;;;5051823;28;20476;-67
2022/05/16 00:28:36;;;;;;;9.50;7.40;;;17.90;95.20;;;;;;5051822;28;20404;-67
2022/05/16 00:31:04;;;;;;;9.00;8.17;;;17.90;95.30;;;;;;5051145;28;20186;-67
2022/05/16 00:33:30;;;;;;;10.40;8.53;;;17.90;95.30;;;;;;5051799;28;20178;-67
2022/05/16 00:35:56;;;;;;;8.73;7.93;;;17.80;95.00;;;;;;5052692;28;20424;-66
2022/05/16 00:38:21;;;;;;;9.33;8.50;;;17.80;95.10;;;;;;5051644;28;20687;-66
2022/05/16 00:40:47;;;;;;;9.43;8.73;;;17.90;95.30;;;;;;5051837;28;20237;-67
2022/05/16 00:43:14;;;;;;;9.40;8.60;;;17.90;95.20;;;;;;5034652;28;20431;-67
2022/05/16 00:45:40;;;;;;;8.40;7.60;;;17.90;95.00;;;;;;5051404;28;20217;-66
2022/05/16 00:48:06;;;;;;;10.40;9.40;;;17.90;95.00;;;;;;5051831;28;20919;-66
2022/05/16 00:50:39;;;;;;;10.70;9.70;;;18.00;94.90;;;;;;5051238;28;20463;-66
2022/05/16 00:53:04;;;;;;;8.50;7.40;;;18.00;94.60;;;;;;5052345;28;20888;-66
2022/05/16 00:55:33;;;;;;;9.70;8.40;;;18.00;94.50;;;;;;5051205;28;20427;-69
2022/05/16 00:58:09;;;;;;;7.70;6.90;;;18.00;94.60;;;;;;5052475;28;20191;-66
2022/05/16 01:00:38;;;;;;;8.90;8.10;;;18.00;94.80;;;;;;5047432;28;20439;-67
2022/05/16 01:06:02;;;;;;;8.70;7.40;;;18.00;94.80;;;;;;5032431;28;20515;-66
2022/05/16 01:08:31;;;;;;;8.87;7.97;;;18.00;94.90;;;;;;5031698;28;20909;-74
2022/05/16 01:11:02;;;;;;;9.00;8.10;;;18.00;94.80;;;;;;5037165;28;20846;-66
2022/05/16 01:13:30;;;;;;;11.53;8.03;;;17.90;94.80;;;;;;5050898;28;20434;-73
2022/05/16 01:15:57;;;;;;;11.23;8.20;;;17.90;94.60;;;;;;5052203;28;20423;-66
2022/05/16 01:18:24;;;;;;;8.90;8.00;;;17.90;94.70;;;;;;5051719;28;20431;-67
2022/05/16 01:21:05;;;;;;;7.90;7.30;;;17.80;94.80;;;;;;5048044;28;20486;-65
2022/05/16 01:23:54;;;;;;;10.00;9.30;;;17.80;95.00;;;;;;5051308;28;20423;-66
2022/05/16 01:26:24;;;;;;;7.60;6.90;;;17.80;95.40;;;;;;5046945;28;20863;-66
2022/05/16 01:28:51;;;;;;;10.37;9.77;;;17.70;95.80;;;;;;5049436;28;20943;-66
2022/05/16 01:31:17;;;;;;;8.20;7.50;;;17.70;95.50;;;;;;5051712;28;20424;-65
2022/05/16 01:33:43;;;;;;;10.10;7.57;;;17.60;95.50;;;;;;5050827;28;20416;-65
2022/05/16 01:36:09;;;;;;;10.20;9.40;;;17.60;95.60;;;;;;5050619;28;20185;-66
2022/05/16 01:38:35;;;;;;;9.47;8.50;;;17.50;95.80;;;;;;5049341;28;20709;-66
2022/05/16 01:41:03;;;;;;;8.70;7.80;;;17.40;95.90;;;;;;5052273;28;20417;-65
2022/05/16 01:43:32;;;;;;;8.83;7.93;;;17.40;96.10;;;;;;5051216;28;20428;-71
2022/05/16 01:45:58;;;;;;;8.40;7.60;;;17.40;96.30;;;;;;5050544;28;20467;-65
2022/05/16 01:48:23;;;;;;;8.50;7.53;;;17.30;96.50;;;;;;5051798;28;20424;-66
2022/05/16 01:50:50;;;;;;;8.77;7.97;;;17.20;96.60;;;;;;5049197;28;20786;-66
2022/05/16 01:53:17;;;;;;;8.80;8.10;;;17.20;96.80;;;;;;5051900;28;20182;-65
2022/05/16 01:55:43;;;;;;;8.53;7.83;;;17.20;96.80;;;;;;5051110;28;20424;-65
2022/05/16 01:58:09;;;;;;;11.30;10.30;;;17.10;97.00;;;;;;5050915;28;20432;-66
2022/05/16 02:00:36;;;;;;;9.33;8.53;;;17.10;97.00;;;;;;5049387;28;20554;-66
2022/05/16 02:03:05;;;;;;;9.13;8.33;;;17.00;97.10;;;;;;5051759;28;20416;-66
2022/05/16 02:05:32;;;;;;;10.47;9.50;;;17.00;97.30;;;;;;5049536;28;20468;-72
2022/05/16 02:07:57;;;;;;;8.43;7.73;;;16.90;97.40;;;;;;5048916;28;20446;-65
2022/05/16 02:10:25;;;;;;;8.80;8.20;;;16.90;97.60;;;;;;5049955;28;20420;-65
2022/05/16 02:12:53;;;;;;;8.60;7.77;;;16.90;97.60;;;;;;5051294;28;20793;-65
2022/05/16 02:15:22;;;;;;;9.33;8.23;;;16.90;97.80;;;;;;5054765;28;20436;-65
2022/05/16 02:17:48;;;;;;;8.33;7.63;;;16.80;97.80;;;;;;5054523;28;20777;-66
2022/05/16 02:20:14;;;;;;;9.47;8.20;;;16.90;97.90;;;;;;5054442;28;20471;-66
2022/05/16 02:25:25;;;;;;;11.20;10.40;;;16.80;97.80;;;;;;5035372;28;20448;-66
2022/05/16 02:27:52;;;;;;;9.50;8.80;;;16.80;97.70;;;;;;5034293;28;21327;-66
2022/05/16 02:30:20;;;;;;;11.23;10.23;;;16.80;98.30;;;;;;5036175;28;20416;-66
2022/05/16 02:32:47;;;;;;;9.23;8.33;;;16.80;98.00;;;;;;5054368;28;20444;-66
2022/05/16 02:35:13;;;;;;;8.43;7.60;;;16.80;97.80;;;;;;5055104;28;20430;-66
2022/05/16 02:37:39;;;;;;;10.30;9.50;;;16.80;97.70;;;;;;5052904;28;20416;-70
2022/05/16 02:40:06;;;;;;;10.17;9.10;;;16.80;98.20;;;;;;5054755;28;20506;-66
2022/05/16 02:42:32;;;;;;;8.87;8.10;;;16.70;98.00;;;;;;5054641;28;20182;-66
2022/05/16 02:44:58;;;;;;;10.43;9.70;;;16.70;98.00;;;;;;5053303;28;20471;-69
2022/05/16 02:47:24;;;;;;;10.47;9.20;;;16.70;98.20;;;;;;5054930;28;20427;-66
2022/05/16 02:49:51;;;;;;;11.47;10.67;;;16.70;98.30;;;;;;5054142;28;20177;-66
2022/05/16 02:52:17;;;;;;;9.27;8.37;;;16.70;98.30;;;;;;5054435;28;20470;-65
2022/05/16 02:54:43;;;;;;;12.43;11.33;;;16.70;98.40;;;;;;5054016;28;20424;-66
2022/05/16 02:57:09;;;;;;;9.53;8.73;;;16.70;98.30;;;;;;5053683;28;20927;-66
2022/05/16 02:59:36;;;;;;;11.77;10.67;;;16.70;98.40;;;;;;5053935;28;20443;-72
2022/05/16 03:02:09;;;;;;;11.60;10.60;;;16.70;98.40;;;;;;5054637;28;20470;-66
2022/05/16 03:04:36;;;;;;;10.70;9.60;;;16.60;98.50;;;;;;5052940;28;20468;-73
2022/05/16 03:07:04;;;;;;;9.83;9.03;;;16.60;98.60;;;;;;5052904;28;20408;-65
2022/05/16 03:09:30;;;;;;;11.37;10.37;;;16.60;98.70;;;;;;5054259;28;20758;-66
2022/05/16 03:11:56;;;;;;;10.03;9.23;;;16.50;98.80;;;;;;5052848;28;20436;-66
2022/05/16 03:14:22;;;;;;;13.07;9.70;;;16.50;99.00;;;;;;5053241;28;20426;-65
2022/05/16 03:16:48;;;;;;;10.60;9.70;;;16.50;99.00;;;;;;5052244;28;20637;-65
2022/05/16 03:19:15;;;;;;;10.50;9.60;;;16.50;99.00;;;;;;5052577;28;20478;-65
2022/05/16 03:21:40;;;;;;;11.27;10.23;;;16.50;99.10;;;;;;5052692;28;20523;-66
2022/05/16 03:24:10;;;;;;;10.20;9.30;;;16.40;99.00;;;;;;5053837;28;20526;-65
2022/05/16 03:26:37;;;;;;;10.00;9.13;;;16.50;99.00;;;;;;5052173;28;20538;-72
2022/05/16 03:29:06;;;;;;;10.70;8.43;;;16.50;99.10;;;;;;5052811;28;20494;-65
2022/05/16 03:31:33;;;;;;;10.63;9.53;;;16.50;99.70;;;;;;5054014;28;20408;-65
2022/05/16 03:33:59;;;;;;;9.30;8.40;;;16.50;99.90;;;;;;5052866;28;20793;-66
2022/05/16 03:36:25;;;;;;;10.90;9.90;;;16.50;99.40;;;;;;5054045;28;20415;-65
2022/05/16 03:41:35;;;;;;;10.87;9.90;;;16.60;99.30;;;;;;5053178;28;20715;-66
2022/05/16 03:44:01;;;;;;;9.20;8.40;;;16.60;98.90;;;;;;5053273;28;20416;-66
2022/05/16 03:46:27;;;;;;;9.77;8.87;;;16.50;99.00;;;;;;5053801;28;20185;-65
2022/05/16 03:48:53;;;;;;;10.30;9.37;;;16.50;99.80;;;;;;5052310;28;20986;-66
2022/05/16 03:51:19;;;;;;;9.80;9.00;;;16.60;99.90;;;;;;5052385;28;20189;-66
2022/05/16 03:53:48;;;;;;;11.33;10.20;;;16.50;99.80;;;;;;5050538;28;20766;-66
2022/05/16 03:56:19;;;;;;;12.03;10.53;;;16.50;99.90;;;;;;5053646;28;20440;-66
2022/05/16 03:58:45;;;;;;;12.20;11.07;;;16.60;99.90;;;;;;5052385;28;20446;-66
2022/05/16 04:01:12;;;;;;;11.40;10.30;;;16.60;99.90;;;;;;5053262;28;20439;-66
2022/05/16 04:03:39;;;;;;;11.20;10.17;;;16.60;99.50;;;;;;5051967;28;20523;-72
2022/05/16 04:06:05;;;;;;;13.50;12.40;;;16.60;99.60;;;;;;5051548;28;20464;-66
2022/05/16 04:08:31;;;;;;;12.50;11.40;;;16.70;99.70;;;;;;5052197;28;20458;-66
2022/05/16 04:11:01;;;;;;;14.33;13.13;;;16.70;99.80;;;;;;5051924;28;20415;-66
2022/05/16 04:13:27;;;;;;;13.20;12.20;;;16.70;99.70;;;;;;5032305;28;20405;-66
2022/05/16 04:15:54;;;;;;;14.50;13.27;;;16.60;99.80;;;;;;5032726;28;20431;-66
2022/05/16 04:18:20;;;;;;;13.97;12.50;;;16.70;99.80;;;;;;5035480;28;21183;-65
2022/05/16 04:20:46;;;;;;;14.53;13.23;;;16.70;99.80;;;;;;5052530;28;20456;-66
2022/05/16 04:23:12;;;;;;;15.23;13.73;;;16.70;99.90;;;;;;5053365;28;20443;-65
2022/05/16 04:25:38;;;;;;;13.80;12.70;;;16.70;99.90;;;;;;5052977;28;20483;-66
2022/05/16 04:28:08;;;;;;;14.30;12.83;;;16.70;99.90;;;;;;5051951;28;20726;-66
2022/05/16 04:30:35;;;;;;;15.20;13.90;;;16.70;99.90;;;;;;5053008;28;20216;-65
2022/05/16 04:33:01;;;;;;;16.40;14.67;;;16.70;99.90;;;;;;5052180;28;20415;-66
2022/05/16 04:35:27;;;;;;;14.70;13.23;;;16.80;99.90;;;;;;5051264;28;20501;-65
2022/05/16 04:37:53;;;;;;;20.10;13.90;;;16.80;99.90;;;;;;5050793;28;20432;-66
2022/05/16 04:40:19;;;;;;;14.27;12.73;;;16.80;99.90;;;;;;5051363;28;20819;-65
2022/05/16 04:42:46;;;;;;;14.03;12.70;;;16.80;99.90;;;;;;5049947;28;20463;-66
2022/05/16 04:45:23;;;;;;;14.73;13.10;;;16.80;99.90;;;;;;5053053;28;20463;-66
2022/05/16 04:47:53;;;;;;;13.93;12.80;;;16.80;99.90;;;;;;5051785;28;21001;-65
2022/05/16 04:50:28;;;;;;;13.73;12.57;;;16.90;99.90;;;;;;5052036;28;20860;-65
2022/05/16 04:52:55;;;;;;;13.87;12.57;;;16.90;99.90;;;;;;5051807;28;20403;-66
2022/05/16 04:55:21;;;;;;;13.40;11.90;;;17.00;99.90;;;;;;5052631;28;20408;-66
2022/05/16 04:57:47;;;;;;;13.13;12.00;;;17.00;99.90;;;;;;5051234;28;20447;-66
2022/05/16 05:00:14;;;;;;;12.73;11.57;;;17.10;99.90;;;;;;5052937;28;20432;-65
2022/05/16 05:02:40;;;;;;;13.70;12.30;;;17.10;99.90;;;;;;5056749;28;20192;-66
2022/05/16 05:05:08;;;;;;;18.43;13.07;;;17.10;99.90;;;;;;5051247;28;20558;-66
2022/05/16 05:07:35;;;;;;;15.13;13.20;;;17.20;99.90;;;;;;5054852;28;20420;-65
2022/05/16 05:15:30;;;;;;;14.27;12.07;;;17.30;99.60;;;;;;5052426;28;20780;-66
2022/05/16 05:17:56;;;;;;;12.13;10.83;;;17.40;99.40;;;;;;5051864;28;20427;-66
2022/05/16 05:20:22;;;;;;;10.50;9.60;;;17.50;97.70;;;;;;5055691;28;20472;-66
2022/05/16 05:22:49;;;;;;;9.70;8.70;;;17.70;98.30;;;;;;5057352;28;20177;-70
2022/05/16 05:25:19;;;;;;;9.30;8.40;;;17.90;97.60;;;;;;5058119;28;20559;-67
2022/05/16 05:27:46;;;;;;;10.83;8.97;;;18.00;97.50;;;;;;5053655;28;20424;-66
2022/05/16 05:30:16;;;;;;;9.67;8.90;;;18.10;97.70;;;;;;5052317;28;20419;-66
2022/05/16 05:32:44;;;;;;;9.70;8.80;;;18.30;97.40;;;;;;5051878;28;20439;-66
2022/05/16 05:35:11;;;;;;;10.70;8.10;;;18.40;96.40;;;;;;5051815;28;20420;-66
2022/05/16 05:37:37;;;;;;;10.20;7.57;;;18.50;95.60;;;;;;5052187;28;20418;-66
2022/05/16 05:40:06;;;;;;;7.90;7.20;;;18.60;94.60;;;;;;5049714;28;20428;-66
2022/05/16 05:42:32;;;;;;;7.70;7.00;;;18.70;93.80;;;;;;5050216;28;20189;-66
2022/05/16 05:44:59;;;;;;;8.07;7.47;;;18.80;93.80;;;;;;5049793;28;20521;-66
2022/05/16 05:47:26;;;;;;;8.13;7.10;;;18.90;93.80;;;;;;5050730;28;20431;-65
2022/05/16 05:49:51;;;;;;;8.00;7.47;;;19.00;94.00;;;;;;5052733;28;20455;-66
2022/05/16 05:52:18;;;;;;;8.23;7.30;;;19.10;93.00;;;;;;5055174;28;20472;-66
2022/05/16 05:54:48;;;;;;;7.80;7.20;;;19.20;93.30;;;;;;5055780;28;20269;-67
2022/05/16 05:57:16;;;;;;;7.90;7.10;;;19.30;93.50;;;;;;5055669;28;20819;-66
2022/05/16 05:59:42;;;;;;;9.53;8.63;;;19.40;93.90;;;;;;5054177;28;20962;-67
2022/05/16 06:02:09;;;;;;;10.50;9.50;;;19.50;94.80;;;;;;5053083;28;20428;-66
2022/05/16 06:04:35;;;;;;;9.50;8.60;;;19.60;95.80;;;;;;5053936;28;20470;-66
2022/05/16 06:07:01;;;;;;;9.30;8.63;;;19.70;96.10;;;;;;5054313;28;20432;-66
2022/05/16 06:09:28;;;;;;;9.60;8.70;;;19.70;96.50;;;;;;5053313;28;20440;-67
2022/05/16 06:11:54;;;;;;;9.93;9.03;;;19.80;97.00;;;;;;5055253;28;20440;-67
2022/05/16 06:14:20;;;;;;;10.13;9.10;;;19.80;98.80;;;;;;5053033;28;21951;-67
2022/05/16 06:16:46;;;;;;;15.47;9.93;;;19.90;97.40;;;;;;5055285;28;20471;-67
2022/05/16 06:19:11;;;;;;;8.40;7.70;;;19.90;97.80;;;;;;5052658;28;20196;-67
2022/05/16 06:21:38;;;;;;;7.70;7.20;;;19.90;95.70;;;;;;5053686;28;20221;-67
2022/05/16 06:24:04;;;;;;;7.40;6.70;;;19.90;94.60;;;;;;5055561;28;20394;-67
2022/05/16 06:26:31;;;;;;;7.27;6.67;;;20.00;93.90;;;;;;5053792;28;20515;-66
2022/05/16 06:28:57;;;;;;;7.60;7.00;;;20.00;92.80;;;;;;5050318;28;20416;-66
2022/05/16 06:31:23;;;;;;;7.47;6.40;;;20.00;92.80;;;;;;5040911;28;20420;-66
2022/05/16 06:33:49;;;;;;;6.73;6.23;;;20.10;93.40;;;;;;5051017;28;20440;-67
2022/05/16 06:36:16;;;;;;;6.90;6.30;;;20.10;92.20;;;;;;5055601;28;20412;-66
2022/05/16 06:38:42;;;;;;;6.37;5.97;;;20.10;92.40;;;;;;5053154;28;20172;-66
2022/05/16 06:41:07;;;;;;;6.83;6.30;;;20.10;92.10;;;;;;5054891;28;20412;-66
2022/05/16 06:43:34;;;;;;;6.67;6.07;;;20.20;91.80;;;;;;5053984;28;20170;-66
2022/05/16 06:46:01;;;;;;;7.07;6.47;;;20.20;91.90;;;;;;5052142;28;20197;-66
2022/05/16 06:48:28;;;;;;;7.00;6.40;;;20.20;92.70;;;;;;5054385;28;20447;-66
2022/05/16 06:50:54;;;;;;;9.37;6.60;;;20.20;93.30;;;;;;5052208;28;20442;-66
2022/05/16 06:53:27;;;;;;;7.50;6.80;;;20.20;95.10;;;;;;5052362;28;20449;-66
2022/05/16 06:55:53;;;;;;;7.10;6.50;;;20.20;96.60;;;;;;5050812;28;20436;-66
2022/05/16 06:58:19;;;;;;;6.83;6.13;;;20.20;96.20;;;;;;5058248;28;20423;-65
2022/05/16 07:00:45;;;;;;;7.10;6.30;;;20.20;94.70;;;;;;5057558;28;20420;-66
2022/05/16 07:03:12;;;;;;;6.70;6.20;;;20.20;93.90;;;;;;5056728;28;20584;-65
2022/05/16 07:05:38;;;;;;;7.47;6.87;;;20.20;94.50;;;;;;5054500;28;20975;-66
2022/05/16 07:08:04;;;;;;;7.23;6.60;;;20.20;94.00;;;;;;5054035;28;20423;-66
2022/05/16 07:10:31;;;;;;;7.23;6.63;;;20.30;93.80;;;;;;5055709;28;20188;-66
2022/05/16 07:12:57;;;;;;;7.20;6.10;;;20.30;93.40;;;;;;5053340;28;20439;-66
2022/05/16 07:15:23;;;;;;;6.37;5.77;;;20.30;91.50;;;;;;5055535;28;20432;-66
2022/05/16 07:17:49;;;;;;;7.70;6.30;;;20.40;91.20;;;;;;5052717;28;20427;-68
2022/05/16 07:20:16;;;;;;;12.17;10.97;;;20.50;91.10;;;;;;5052804;28;20490;-66
2022/05/16 07:22:48;;;;;;;6.43;5.93;;;20.50;90.80;;;;;;5053370;28;20910;-66
2022/05/16 07:25:17;;;;;;;12.60;5.80;;;20.50;87.90;;;;;;5054071;28;20447;-65
2022/05/16 07:28:01;;;;;;;6.50;6.00;;;20.50;87.70;;;;;;5074554;28;20420;-66
2022/05/16 07:30:29;;;;;;;6.63;6.17;;;20.60;89.00;;;;;;5072221;28;20469;-66
2022/05/16 07:32:55;;;;;;;7.37;6.67;;;20.80;89.30;;;;;;5053689;28;20458;-66
2022/05/16 07:35:26;;;;;;;8.90;8.20;;;20.90;89.20;;;;;;5054109;28;20416;-65
2022/05/16 07:37:53;;;;;;;6.60;6.17;;;20.90;88.10;;;;;;5051162;28;20638;-67
2022/05/16 07:40:21;;;;;;;8.23;7.60;;;21.00;88.40;;;;;;5050141;28;20432;-65
2022/05/16 07:42:48;;;;;;;7.00;6.40;;;21.10;88.80;;;;;;5053665;28;20435;-65
2022/05/16 07:45:13;;;;;;;6.50;5.90;;;21.10;87.10;;;;;;5053113;28;20459;-65
2022/05/16 07:47:39;;;;;;;6.93;6.37;;;21.20;87.10;;;;;;5053809;28;20503;-66
2022/05/16 07:50:07;;;;;;;7.50;6.10;;;21.30;88.70;;;;;;5053513;28;20490;-66
2022/05/16 07:52:33;;;;;;;6.63;6.13;;;21.30;88.50;;;;;;5054101;28;20201;-65
2022/05/16 07:54:59;;;;;;;6.20;5.80;;;21.40;86.20;;;;;;5053721;28;20943;-65
2022/05/16 07:57:25;;;;;;;5.80;5.40;;;21.40;87.20;;;;;;5052777;28;20416;-66
2022/05/16 07:59:52;;;;;;;6.87;5.60;;;21.40;86.60;;;;;;5053356;28;20462;-68
2022/05/16 08:02:17;;;;;;;7.23;6.53;;;21.40;85.30;;;;;;5053559;28;20765;-65
2022/05/16 08:04:43;;;;;;;6.20;5.70;;;21.40;85.90;;;;;;5053433;28;20467;-65
2022/05/16 08:07:09;;;;;;;5.97;5.60;;;21.40;85.00;;;;;;5052809;28;20243;-66
2022/05/16 08:12:25;;;;;;;9.20;6.23;;;21.40;86.30;;;;;;5052322;28;20185;-66
2022/05/16 08:14:51;;;;;;;5.70;5.20;;;21.40;86.00;;;;;;5053693;28;20446;-65
2022/05/16 08:17:16;;;;;;;6.67;6.17;;;21.40;85.60;;;;;;5053237;28;20509;-65
2022/05/16 08:19:42;;;;;;;7.40;5.73;;;21.40;87.90;;;;;;5051807;28;20498;-66
2022/05/16 08:22:08;;;;;;;5.90;5.40;;;21.50;88.00;;;;;;5052979;28;20178;-66
2022/05/16 08:24:33;;;;;;;6.87;5.87;;;21.50;87.10;;;;;;5053393;28;20197;-65
2022/05/16 08:27:02;;;;;;;6.03;5.73;;;21.40;87.20;;;;;;5052779;28;20280;-66
2022/05/16 08:29:29;;;;;;;7.00;5.27;;;21.40;88.30;;;;;;5053235;28;20170;-65
2022/05/16 08:31:55;;;;;;;6.00;5.50;;;21.30;88.70;;;;;;5052530;28;20429;-66
2022/05/16 08:34:22;;;;;;;6.07;5.43;;;21.30;89.40;;;;;;5053237;28;20776;-66
2022/05/16 08:42:19;;;;;;;6.23;5.83;;;21.40;90.10;;;;;;5051823;28;21048;-66
2022/05/16 08:45:02;;;;;;;6.27;5.67;;;21.40;90.60;;;;;;5052653;28;20819;-66
2022/05/16 08:47:34;;;;;;;6.50;5.97;;;21.40;90.50;;;;;;5053181;28;20412;-65
2022/05/16 08:50:08;;;;;;;5.27;4.97;;;21.40;90.90;;;;;;5052807;28;20456;-66
2022/05/16 08:53:02;;;;;;;7.33;6.17;;;21.40;90.30;;;;;;5053107;28;20401;-66
2022/05/16 08:55:33;;;;;;;8.53;6.33;;;21.40;91.00;;;;;;5052905;28;20460;-66
2022/05/16 08:58:03;;;;;;;6.07;5.57;;;21.50;91.30;;;;;;5052564;28;20864;-66
2022/05/16 09:00:56;;;;;;;6.50;6.00;;;21.60;91.80;;;;;;5052643;28;20420;-66
2022/05/16 09:03:27;;;;;;;6.67;6.13;;;21.60;91.40;;;;;;5052733;28;20492;-66
2022/05/16 09:06:01;;;;;;;6.90;6.13;;;21.70;91.70;;;;;;5052782;28;20456;-66
2022/05/16 09:08:33;;;;;;;6.97;6.30;;;21.70;91.50;;;;;;5052457;28;20415;-66
2022/05/16 09:11:07;;;;;;;6.53;6.03;;;21.80;92.00;;;;;;5052107;28;20408;-65
2022/05/16 09:13:49;;;;;;;6.77;6.10;;;21.80;92.70;;;;;;5052744;28;20404;-66
2022/05/16 09:16:27;;;;;;;10.53;6.80;;;21.90;94.20;;;;;;5052038;28;21158;-65
2022/05/16 09:19:15;;;;;;;6.40;5.80;;;21.90;94.10;;;;;;5052256;28;20409;-65
2022/05/16 09:22:03;;;;;;;6.70;6.07;;;21.90;94.80;;;;;;5052681;28;20858;-66
2022/05/16 09:24:36;;;;;;;7.27;6.57;;;21.90;95.40;;;;;;5068169;28;20939;-65
2022/05/16 09:27:04;;;;;;;7.20;6.60;;;21.90;96.10;;;;;;5052231;28;20412;-66
2022/05/16 09:29:35;;;;;;;7.07;6.47;;;21.90;96.40;;;;;;5052714;28;20523;-66
2022/05/16 09:32:19;;;;;;;8.13;7.33;;;21.90;97.50;;;;;;5051863;28;20404;-66
2022/05/16 09:34:45;;;;;;;7.73;6.60;;;21.90;97.50;;;;;;5052286;28;20412;-65
2022/05/16 09:37:10;;;;;;;6.60;6.10;;;21.90;97.20;;;;;;5051888;28;20903;-66
2022/05/16 09:39:36;;;;;;;7.60;7.00;;;21.80;97.10;;;;;;5052666;28;20268;-66
2022/05/16 09:42:04;;;;;;;10.00;6.10;;;21.80;96.80;;;;;;5051735;28;20177;-66
2022/05/16 09:44:40;;;;;;;7.77;6.80;;;21.80;97.10;;;;;;5052093;28;20320;-66
2022/05/16 09:47:36;;;;;;;7.00;6.40;;;21.80;98.20;;;;;;5051010;28;20416;-66
2022/05/16 09:50:21;;;;;;;10.70;9.60;;;21.80;97.00;;;;;;5051737;28;20443;-65
2022/05/16 09:52:51;;;;;;;6.77;6.27;;;21.80;97.60;;;;;;5052387;28;20412;-66
2022/05/16 09:55:42;;;;;;;6.87;6.10;;;21.60;96.90;;;;;;5051610;28;20507;-65
2022/05/16 09:58:16;;;;;;;6.90;6.40;;;21.60;98.10;;;;;;5051640;28;20459;-66
2022/05/16 10:01:07;;;;;;;8.33;5.43;;;21.60;97.90;;;;;;5052242;28;20406;-66
2022/05/16 10:03:42;;;;;;;7.03;6.43;;;21.60;98.00;;;;;;5046242;28;20515;-66
2022/05/16 10:06:25;;;;;;;7.80;6.93;;;21.60;99.40;;;;;;5051384;28;20458;-66
2022/05/16 10:08:51;;;;;;;7.47;6.77;;;21.50;99.90;;;;;;5052219;28;20533;-66
2022/05/16 10:11:26;;;;;;;7.10;6.60;;;21.40;99.50;;;;;;5051501;28;20505;-66
2022/05/16 10:13:53;;;;;;;7.17;6.63;;;21.30;99.80;;;;;;5051796;28;20400;-66
2022/05/16 10:16:21;;;;;;;8.03;7.00;;;21.40;99.90;;;;;;5051713;28;20840;-66
2022/05/16 10:18:57;;;;;;;9.60;8.70;;;21.40;99.90;;;;;;5051901;28;20498;-66
2022/05/16 10:21:36;;;;;;;9.40;8.60;;;21.40;99.90;;;;;;5051063;28;20617;-66
2022/05/16 10:24:08;;;;;;;10.07;7.03;;;21.40;99.90;;;;;;5051296;28;20412;-66
2022/05/16 10:26:42;;;;;;;8.10;7.47;;;21.40;99.90;;;;;;5051584;28;20462;-66
2022/05/16 10:29:15;;;;;;;11.40;8.30;;;21.50;99.90;;;;;;5051414;28;20436;-66
2022/05/16 10:34:38;;;;;;;7.40;6.80;;;21.60;99.90;;;;;;5053020;28;20421;-66
2022/05/16 10:37:06;;;;;;;8.00;7.20;;;21.60;99.90;;;;;;5055029;28;20404;-66
2022/05/16 10:39:35;;;;;;;8.20;7.70;;;21.60;99.90;;;;;;5055737;28;20431;-65
2022/05/16 10:42:17;;;;;;;8.20;7.50;;;21.60;99.90;;;;;;5055096;28;20756;-68
2022/05/16 10:44:57;;;;;;;8.50;7.90;;;21.60;99.90;;;;;;5055321;28;20818;-65
2022/05/16 10:47:33;;;;;;;8.87;7.50;;;21.70;99.90;;;;;;5054592;28;20874;-65
2022/05/16 10:50:02;;;;;;;8.57;7.83;;;21.90;99.90;;;;;;5055281;28;20569;-65
2022/05/16 10:52:40;;;;;;;8.03;7.43;;;22.10;99.90;;;;;;5055022;28;20507;-65
2022/05/16 10:55:06;;;;;;;8.00;7.33;;;22.50;99.90;;;;;;5054285;28;20758;-66
2022/05/16 10:57:58;;;;;;;7.60;6.90;;;22.80;99.90;;;;;;5054888;28;20789;-65
2022/05/16 11:00:43;;;;;;;7.43;6.90;;;23.00;99.90;;;;;;5054524;28;20396;-65
2022/05/16 11:03:28;;;;;;;6.80;6.30;;;23.30;99.70;;;;;;5054095;28;20487;-65
2022/05/16 11:06:11;;;;;;;6.63;6.03;;;23.60;98.40;;;;;;5054797;28;20447;-65
2022/05/16 11:08:46;;;;;;;6.20;5.80;;;23.90;97.10;;;;;;5054674;28;20400;-65
2022/05/16 11:11:30;;;;;;;8.03;6.70;;;24.10;96.30;;;;;;5054346;28;20462;-65
2022/05/16 11:14:08;;;;;;;6.10;5.50;;;24.30;96.00;;;;;;5055165;28;20416;-65
2022/05/16 11:16:38;;;;;;;7.33;6.63;;;24.60;96.00;;;;;;5054187;28;20415;-65
2022/05/16 11:19:07;;;;;;;6.83;6.33;;;24.80;95.50;;;;;;5053973;28;20777;-68
2022/05/16 11:21:52;;;;;;;6.77;6.13;;;24.90;94.40;;;;;;5053070;28;20982;-65
2022/05/16 11:24:39;;;;;;;7.17;6.57;;;25.00;94.80;;;;;;5053724;28;20403;-65
2022/05/16 11:27:27;;;;;;;6.47;5.87;;;25.10;95.30;;;;;;5052617;28;20498;-66
2022/05/16 11:30:21;;;;;;;5.63;5.23;;;25.10;93.40;;;;;;5054132;28;20475;-65
2022/05/16 11:33:18;;;;;;;6.80;6.07;;;25.10;94.90;;;;;;5054393;28;20428;-65
2022/05/16 11:35:46;;;;;;;5.90;5.50;;;25.30;95.30;;;;;;5054428;28;20437;-65
2022/05/16 11:38:26;;;;;;;6.70;6.27;;;25.30;94.10;;;;;;5053809;28;20428;-65
2022/05/16 11:41:13;;;;;;;6.37;5.93;;;25.40;92.20;;;;;;5054458;28;20432;-65
2022/05/16 11:43:45;;;;;;;6.13;5.80;;;25.40;91.40;;;;;;5054362;28;20470;-65
2022/05/16 11:46:41;;;;;;;8.50;6.50;;;25.50;91.10;;;;;;5053160;28;20455;-66
2022/05/16 11:49:40;;;;;;;6.47;5.83;;;25.50;91.50;;;;;;5052156;28;20521;-65
2022/05/16 11:52:12;;;;;;;7.07;6.50;;;25.50;91.90;;;;;;5053546;28;20465;-66
2022/05/16 11:54:43;;;;;;;6.17;5.77;;;25.50;90.70;;;;;;5051530;28;20425;-66
2022/05/16 12:03:06;;;;;;;6.20;5.80;;;25.70;91.50;;;;;;5046503;28;20423;-66
2022/05/16 12:05:43;;;;;;;7.00;6.60;;;25.90;90.70;;;;;;5051937;28;20478;-66
2022/05/16 12:08:44;;;;;;;6.17;5.57;;;26.10;91.70;;;;;;5053167;28;20436;-66
2022/05/16 12:11:15;;;;;;;7.83;7.23;;;26.40;91.30;;;;;;5032995;28;20742;-65
2022/05/16 12:14:01;;;;;;;6.27;5.77;;;26.60;89.50;;;;;;5033958;28;20408;-65
2022/05/16 12:16:55;;;;;;;6.20;5.60;;;26.80;87.90;;;;;;5056069;28;20567;-65
2022/05/16 12:19:29;;;;;;;6.37;5.87;;;26.90;87.50;;;;;;5061357;28;20431;-65
2022/05/16 12:22:02;;;;;;;5.37;5.07;;;27.10;85.60;;;;;;5053450;28;20443;-66
2022/05/16 12:24:41;;;;;;;5.70;5.40;;;27.20;85.40;;;;;;5065726;28;20590;-66
2022/05/16 12:27:16;;;;;;;5.90;5.50;;;27.40;87.70;;;;;;5073007;28;20408;-68
2022/05/16 12:29:52;;;;;;;5.73;5.23;;;27.50;82.40;;;;;;5072850;28;20926;-66
2022/05/16 12:32:30;;;;;;;6.87;6.30;;;27.50;83.30;;;;;;5070755;28;20442;-66
2022/05/16 12:35:06;;;;;;;6.33;5.93;;;27.70;83.40;;;;;;5067182;28;20472;-66
2022/05/16 12:37:34;;;;;;;7.63;7.03;;;27.80;83.50;;;;;;5064540;28;20422;-66
2022/05/16 12:40:25;;;;;;;6.50;5.90;;;27.80;82.90;;;;;;5039167;28;20508;-66
2022/05/16 12:43:20;;;;;;;5.80;5.40;;;27.80;79.40;;;;;;5032945;28;20397;-66
2022/05/16 12:45:49;;;;;;;6.17;5.87;;;27.70;77.50;;;;;;5044814;28;20452;-66
2022/05/16 12:48:33;;;;;;;5.03;4.73;;;27.70;82.10;;;;;;5052270;28;20420;-66
2022/05/16 12:51:10;;;;;;;8.13;7.50;;;27.70;81.10;;;;;;5051735;28;20428;-66
2022/05/16 12:53:38;;;;;;;7.37;6.87;;;27.80;81.90;;;;;;5053220;28;20419;-65
2022/05/16 12:56:21;;;;;;;5.77;5.37;;;27.60;79.70;;;;;;5051886;28;20528;-65
2022/05/16 12:59:19;;;;;;;7.30;6.77;;;27.60;78.80;;;;;;5051544;28;20904;-67
2022/05/16 13:02:17;;;;;;;5.37;4.87;;;27.50;80.20;;;;;;5045927;28;20439;-68
2022/05/16 13:05:13;;;;;;;7.60;7.20;;;27.40;80.40;;;;;;5039216;28;20940;-67
2022/05/16 13:07:52;;;;;;;6.07;5.50;;;27.30;81.10;;;;;;5051181;28;20429;-68
2022/05/16 13:10:39;;;;;;;7.73;6.90;;;27.20;78.90;;;;;;5036825;28;20415;-68
2022/05/16 13:13:37;;;;;;;5.40;5.07;;;27.10;82.20;;;;;;5051124;28;20436;-68
2022/05/16 13:16:09;;;;;;;5.37;5.00;;;27.10;80.50;;;;;;5049882;28;20442;-68
2022/05/16 13:18:46;;;;;;;5.90;5.40;;;27.00;79.70;;;;;;5050537;28;20439;-67
2022/05/16 13:21:16;;;;;;;6.93;6.50;;;26.90;83.00;;;;;;5050378;28;20464;-68
2022/05/16 13:23:42;;;;;;;5.70;5.30;;;26.90;84.20;;;;;;5051061;28;20436;-67
2022/05/16 13:31:48;;;;;;;5.77;5.37;;;26.70;77.80;;;;;;5051228;28;20460;-67
2022/05/16 13:34:27;;;;;;;6.53;6.03;;;26.60;78.00;;;;;;5049681;28;20466;-70
2022/05/16 13:36:53;;;;;;;6.27;5.90;;;26.40;77.90;;;;;;5050235;28;20923;-68
2022/05/16 13:39:20;;;;;;;5.30;4.80;;;26.30;76.70;;;;;;5048458;28;20468;-68